sensor_id;sensor_type;location;lat;lon;timestamp;P1;durP1;ratioP1;P2;durP2;ratioP2
71164;SDS011;58859;55.132;-1.586;2022-11-21T00:00:58;3.60;;;1.98;;
71164;SDS011;58859;55.132;-1.586;2022-11-21T00:03:24;5.45;;;2.15;;
71164;SDS011;58859;55.132;-1.586;2022-11-21T00:05:49;4.33;;;1.97;;
71164;SDS011;58859;55.132;-1.586;2022-11-21T00:08:16;4.47;;;1.90;;
71164;SDS011;58859;55.132;-1.586;2022-11-21T00:10:42;5.22;;;1.95;;
71164;SDS011;58859;55.132;-1.586;2022-11-21T00:13:12;2.28;;;1.42;;
71164;SDS011;58859;55.132;-1.586;2022-11-21T00:15:40;4.30;;;1.60;;
71164;SDS011;58859;55.132;-1.586;2022-11-21T00:18:05;2.35;;;1.40;;
71164;SDS011;58859;55.132;-1.586;2022-11-21T00:20:30;3.03;;;1.47;;
71164;SDS011;58859;55.132;-1.586;2022-11-21T00:22:56;3.07;;;1.53;;
71164;SDS011;58859;55.132;-1.586;2022-11-21T00:25:22;3.60;;;1.63;;
71164;SDS011;58859;55.132;-1.586;2022-11-21T00:27:47;4.33;;;1.60;;
71164;SDS011;58859;55.132;-1.586;2022-11-21T00:30:13;4.20;;;2.17;;
71164;SDS011;58859;55.132;-1.586;2022-11-21T00:32:38;3.47;;;1.98;;
71164;SDS011;58859;55.132;-1.586;2022-11-21T00:35:04;3.40;;;1.50;;
71164;SDS011;58859;55.132;-1.586;2022-11-21T00:37:31;2.78;;;1.58;;
71164;SDS011;58859;55.132;-1.586;2022-11-21T00:39:57;2.97;;;1.80;;
71164;SDS011;58859;55.132;-1.586;2022-11-21T00:42:22;2.63;;;1.60;;
71164;SDS011;58859;55.132;-1.586;2022-11-21T00:44:47;4.07;;;2.37;;
71164;SDS011;58859;55.132;-1.586;2022-11-21T00:47:13;5.70;;;1.77;;
71164;SDS011;58859;55.132;-1.586;2022-11-21T00:49:38;5.07;;;1.53;;
71164;SDS011;58859;55.132;-1.586;2022-11-21T00:52:03;2.97;;;1.53;;
71164;SDS011;58859;55.132;-1.586;2022-11-21T00:54:29;4.43;;;1.67;;
71164;SDS011;58859;55.132;-1.586;2022-11-21T00:56:54;4.03;;;1.50;;
71164;SDS011;58859;55.132;-1.586;2022-11-21T00:59:19;3.20;;;1.40;;
71164;SDS011;58859;55.132;-1.586;2022-11-21T01:01:45;2.97;;;1.47;;
71164;SDS011;58859;55.132;-1.586;2022-11-21T01:04:10;5.70;;;1.73;;
71164;SDS011;58859;55.132;-1.586;2022-11-21T01:06:36;5.83;;;1.60;;
71164;SDS011;58859;55.132;-1.586;2022-11-21T01:09:02;2.28;;;1.52;;
71164;SDS011;58859;55.132;-1.586;2022-11-21T01:11:28;3.03;;;1.47;;
71164;SDS011;58859;55.132;-1.586;2022-11-21T01:13:53;4.57;;;1.70;;
71164;SDS011;58859;55.132;-1.586;2022-11-21T01:16:20;6.63;;;1.87;;
71164;SDS011;58859;55.132;-1.586;2022-11-21T01:18:47;3.35;;;1.60;;
71164;SDS011;58859;55.132;-1.586;2022-11-21T01:23:38;3.03;;;1.30;;
71164;SDS011;58859;55.132;-1.586;2022-11-21T01:26:04;4.25;;;1.98;;
71164;SDS011;58859;55.132;-1.586;2022-11-21T01:28:32;4.90;;;1.90;;
71164;SDS011;58859;55.132;-1.586;2022-11-21T01:33:33;3.63;;;1.50;;
71164;SDS011;58859;55.132;-1.586;2022-11-21T01:36:09;2.23;;;1.50;;
71164;SDS011;58859;55.132;-1.586;2022-11-21T01:38:39;2.38;;;1.48;;
71164;SDS011;58859;55.132;-1.586;2022-11-21T01:41:06;5.55;;;2.28;;
71164;SDS011;58859;55.132;-1.586;2022-11-21T01:43:32;3.03;;;1.80;;
71164;SDS011;58859;55.132;-1.586;2022-11-21T01:46:19;5.20;;;1.70;;
71164;SDS011;58859;55.132;-1.586;2022-11-21T01:48:49;5.70;;;1.70;;
71164;SDS011;58859;55.132;-1.586;2022-11-21T01:51:45;3.50;;;1.70;;
71164;SDS011;58859;55.132;-1.586;2022-11-21T01:54:34;3.88;;;1.70;;
71164;SDS011;58859;55.132;-1.586;2022-11-21T01:57:07;4.70;;;1.80;;
71164;SDS011;58859;55.132;-1.586;2022-11-21T02:00:35;3.17;;;1.65;;
71164;SDS011;58859;55.132;-1.586;2022-11-21T02:02:43;3.88;;;1.90;;
71164;SDS011;58859;55.132;-1.586;2022-11-21T02:05:12;3.80;;;1.52;;
71164;SDS011;58859;55.132;-1.586;2022-11-21T02:07:42;4.03;;;1.80;;
71164;SDS011;58859;55.132;-1.586;2022-11-21T02:10:09;3.13;;;2.00;;
71164;SDS011;58859;55.132;-1.586;2022-11-21T02:12:37;5.30;;;2.22;;
71164;SDS011;58859;55.132;-1.586;2022-11-21T02:15:05;5.93;;;2.08;;
71164;SDS011;58859;55.132;-1.586;2022-11-21T02:17:31;2.50;;;1.67;;
71164;SDS011;58859;55.132;-1.586;2022-11-21T02:20:04;1.77;;;1.52;;
71164;SDS011;58859;55.132;-1.586;2022-11-21T02:22:34;6.60;;;2.00;;
71164;SDS011;58859;55.132;-1.586;2022-11-21T02:25:11;3.17;;;1.80;;
71164;SDS011;58859;55.132;-1.586;2022-11-21T02:27:39;5.25;;;1.90;;
71164;SDS011;58859;55.132;-1.586;2022-11-21T02:30:05;6.20;;;2.03;;
71164;SDS011;58859;55.132;-1.586;2022-11-21T02:32:33;4.05;;;2.08;;
71164;SDS011;58859;55.132;-1.586;2022-11-21T02:35:00;6.75;;;2.38;;
71164;SDS011;58859;55.132;-1.586;2022-11-21T02:37:26;2.78;;;1.70;;
71164;SDS011;58859;55.132;-1.586;2022-11-21T02:39:51;4.33;;;1.80;;
71164;SDS011;58859;55.132;-1.586;2022-11-21T02:42:27;4.75;;;1.80;;
71164;SDS011;58859;55.132;-1.586;2022-11-21T02:45:13;7.07;;;2.17;;
71164;SDS011;58859;55.132;-1.586;2022-11-21T02:47:43;1.95;;;1.75;;
71164;SDS011;58859;55.132;-1.586;2022-11-21T02:50:13;2.85;;;2.33;;
71164;SDS011;58859;55.132;-1.586;2022-11-21T02:52:40;2.55;;;2.00;;
71164;SDS011;58859;55.132;-1.586;2022-11-21T02:55:06;2.03;;;1.83;;
71164;SDS011;58859;55.132;-1.586;2022-11-21T02:57:32;3.03;;;1.83;;
71164;SDS011;58859;55.132;-1.586;2022-11-21T02:59:57;2.83;;;1.60;;
71164;SDS011;58859;55.132;-1.586;2022-11-21T03:02:23;2.20;;;2.00;;
71164;SDS011;58859;55.132;-1.586;2022-11-21T03:04:48;4.87;;;1.70;;
71164;SDS011;58859;55.132;-1.586;2022-11-21T03:07:14;2.37;;;1.63;;
71164;SDS011;58859;55.132;-1.586;2022-11-21T03:09:39;2.20;;;1.80;;
71164;SDS011;58859;55.132;-1.586;2022-11-21T03:12:08;2.03;;;1.80;;
71164;SDS011;58859;55.132;-1.586;2022-11-21T03:14:34;2.83;;;1.80;;
71164;SDS011;58859;55.132;-1.586;2022-11-21T03:17:00;2.63;;;1.85;;
71164;SDS011;58859;55.132;-1.586;2022-11-21T03:19:25;2.42;;;1.85;;
71164;SDS011;58859;55.132;-1.586;2022-11-21T03:21:51;1.93;;;1.60;;
71164;SDS011;58859;55.132;-1.586;2022-11-21T03:24:16;3.63;;;1.87;;
71164;SDS011;58859;55.132;-1.586;2022-11-21T03:26:41;1.60;;;1.50;;
71164;SDS011;58859;55.132;-1.586;2022-11-21T03:29:07;2.03;;;1.80;;
71164;SDS011;58859;55.132;-1.586;2022-11-21T03:31:32;3.30;;;1.83;;
71164;SDS011;58859;55.132;-1.586;2022-11-21T03:33:58;1.85;;;1.55;;
71164;SDS011;58859;55.132;-1.586;2022-11-21T03:36:23;2.43;;;1.83;;
71164;SDS011;58859;55.132;-1.586;2022-11-21T03:38:49;2.20;;;1.90;;
71164;SDS011;58859;55.132;-1.586;2022-11-21T03:41:14;2.20;;;2.00;;
71164;SDS011;58859;55.132;-1.586;2022-11-21T03:44:02;1.77;;;1.67;;
71164;SDS011;58859;55.132;-1.586;2022-11-21T03:46:30;1.77;;;1.67;;
71164;SDS011;58859;55.132;-1.586;2022-11-21T03:48:56;2.75;;;2.10;;
71164;SDS011;58859;55.132;-1.586;2022-11-21T03:51:22;1.67;;;1.47;;
71164;SDS011;58859;55.132;-1.586;2022-11-21T03:53:47;2.20;;;1.83;;
71164;SDS011;58859;55.132;-1.586;2022-11-21T03:56:13;1.63;;;1.52;;
71164;SDS011;58859;55.132;-1.586;2022-11-21T03:58:39;2.97;;;1.88;;
71164;SDS011;58859;55.132;-1.586;2022-11-21T04:01:04;2.38;;;2.17;;
71164;SDS011;58859;55.132;-1.586;2022-11-21T04:03:30;3.63;;;2.57;;
71164;SDS011;58859;55.132;-1.586;2022-11-21T04:05:55;2.53;;;2.30;;
71164;SDS011;58859;55.132;-1.586;2022-11-21T04:08:21;2.72;;;1.98;;
71164;SDS011;58859;55.132;-1.586;2022-11-21T04:10:50;1.87;;;1.60;;
71164;SDS011;58859;55.132;-1.586;2022-11-21T04:13:16;1.48;;;1.38;;
71164;SDS011;58859;55.132;-1.586;2022-11-21T04:15:42;2.13;;;1.80;;
71164;SDS011;58859;55.132;-1.586;2022-11-21T04:18:08;1.80;;;1.70;;
71164;SDS011;58859;55.132;-1.586;2022-11-21T04:20:33;1.67;;;1.50;;
71164;SDS011;58859;55.132;-1.586;2022-11-21T04:22:59;1.63;;;1.17;;
71164;SDS011;58859;55.132;-1.586;2022-11-21T04:25:24;1.40;;;1.30;;
71164;SDS011;58859;55.132;-1.586;2022-11-21T04:27:50;1.70;;;1.60;;
71164;SDS011;58859;55.132;-1.586;2022-11-21T04:30:16;1.73;;;1.63;;
71164;SDS011;58859;55.132;-1.586;2022-11-21T04:32:41;2.07;;;1.47;;
71164;SDS011;58859;55.132;-1.586;2022-11-21T04:35:08;1.85;;;1.35;;
71164;SDS011;58859;55.132;-1.586;2022-11-21T04:37:33;2.10;;;1.67;;
71164;SDS011;58859;55.132;-1.586;2022-11-21T04:39:59;1.57;;;1.47;;
71164;SDS011;58859;55.132;-1.586;2022-11-21T04:42:24;1.58;;;1.48;;
71164;SDS011;58859;55.132;-1.586;2022-11-21T04:44:50;2.00;;;1.80;;
71164;SDS011;58859;55.132;-1.586;2022-11-21T04:47:15;1.97;;;1.63;;
71164;SDS011;58859;55.132;-1.586;2022-11-21T04:49:40;2.07;;;1.90;;
71164;SDS011;58859;55.132;-1.586;2022-11-21T04:52:06;3.37;;;2.07;;
71164;SDS011;58859;55.132;-1.586;2022-11-21T04:54:31;2.27;;;1.63;;
71164;SDS011;58859;55.132;-1.586;2022-11-21T04:56:57;2.60;;;1.90;;
71164;SDS011;58859;55.132;-1.586;2022-11-21T04:59:22;2.57;;;2.07;;
71164;SDS011;58859;55.132;-1.586;2022-11-21T05:01:47;2.13;;;1.80;;
71164;SDS011;58859;55.132;-1.586;2022-11-21T05:04:13;4.00;;;1.80;;
71164;SDS011;58859;55.132;-1.586;2022-11-21T05:06:38;1.90;;;1.57;;
71164;SDS011;58859;55.132;-1.586;2022-11-21T05:09:03;1.67;;;1.57;;
71164;SDS011;58859;55.132;-1.586;2022-11-21T05:11:29;2.47;;;1.85;;
71164;SDS011;58859;55.132;-1.586;2022-11-21T05:14:13;4.00;;;2.40;;
71164;SDS011;58859;55.132;-1.586;2022-11-21T05:16:38;2.95;;;2.00;;
71164;SDS011;58859;55.132;-1.586;2022-11-21T05:19:03;3.08;;;2.03;;
71164;SDS011;58859;55.132;-1.586;2022-11-21T05:21:29;1.60;;;1.50;;
71164;SDS011;58859;55.132;-1.586;2022-11-21T05:23:54;1.80;;;1.70;;
71164;SDS011;58859;55.132;-1.586;2022-11-21T05:26:20;2.93;;;1.50;;
71164;SDS011;58859;55.132;-1.586;2022-11-21T05:28:45;1.50;;;1.40;;
71164;SDS011;58859;55.132;-1.586;2022-11-21T05:31:12;1.57;;;1.43;;
71164;SDS011;58859;55.132;-1.586;2022-11-21T05:33:38;1.70;;;1.60;;
71164;SDS011;58859;55.132;-1.586;2022-11-21T05:36:03;2.40;;;2.20;;
71164;SDS011;58859;55.132;-1.586;2022-11-21T05:38:29;3.60;;;2.70;;
71164;SDS011;58859;55.132;-1.586;2022-11-21T05:40:54;3.27;;;2.47;;
71164;SDS011;58859;55.132;-1.586;2022-11-21T05:43:19;3.57;;;2.90;;
71164;SDS011;58859;55.132;-1.586;2022-11-21T05:46:03;5.45;;;2.58;;
71164;SDS011;58859;55.132;-1.586;2022-11-21T05:48:28;4.70;;;3.10;;
71164;SDS011;58859;55.132;-1.586;2022-11-21T05:50:54;4.40;;;2.70;;
71164;SDS011;58859;55.132;-1.586;2022-11-21T05:53:19;3.47;;;2.67;;
71164;SDS011;58859;55.132;-1.586;2022-11-21T05:55:45;4.10;;;3.20;;
71164;SDS011;58859;55.132;-1.586;2022-11-21T05:58:10;3.50;;;2.57;;
71164;SDS011;58859;55.132;-1.586;2022-11-21T06:00:36;2.92;;;2.00;;
71164;SDS011;58859;55.132;-1.586;2022-11-21T06:03:02;4.63;;;2.40;;
71164;SDS011;58859;55.132;-1.586;2022-11-21T06:05:46;3.00;;;2.40;;
71164;SDS011;58859;55.132;-1.586;2022-11-21T06:08:12;3.10;;;2.40;;
71164;SDS011;58859;55.132;-1.586;2022-11-21T06:10:37;4.03;;;2.70;;
71164;SDS011;58859;55.132;-1.586;2022-11-21T06:13:02;3.20;;;2.60;;
71164;SDS011;58859;55.132;-1.586;2022-11-21T06:15:28;3.43;;;2.30;;
71164;SDS011;58859;55.132;-1.586;2022-11-21T06:17:54;3.17;;;2.75;;
71164;SDS011;58859;55.132;-1.586;2022-11-21T06:20:19;3.23;;;2.77;;
71164;SDS011;58859;55.132;-1.586;2022-11-21T06:22:45;4.73;;;3.00;;
71164;SDS011;58859;55.132;-1.586;2022-11-21T06:25:10;4.15;;;2.35;;
71164;SDS011;58859;55.132;-1.586;2022-11-21T06:27:35;4.10;;;2.63;;
71164;SDS011;58859;55.132;-1.586;2022-11-21T06:30:01;2.63;;;2.20;;
71164;SDS011;58859;55.132;-1.586;2022-11-21T06:32:26;3.50;;;2.10;;
71164;SDS011;58859;55.132;-1.586;2022-11-21T06:34:52;3.97;;;2.90;;
71164;SDS011;58859;55.132;-1.586;2022-11-21T06:37:17;3.93;;;2.60;;
71164;SDS011;58859;55.132;-1.586;2022-11-21T06:39:42;4.30;;;3.20;;
71164;SDS011;58859;55.132;-1.586;2022-11-21T06:42:08;3.90;;;2.70;;
71164;SDS011;58859;55.132;-1.586;2022-11-21T06:44:33;4.93;;;2.90;;
71164;SDS011;58859;55.132;-1.586;2022-11-21T06:46:58;5.87;;;3.70;;
71164;SDS011;58859;55.132;-1.586;2022-11-21T06:49:24;4.53;;;3.27;;
71164;SDS011;58859;55.132;-1.586;2022-11-21T06:51:49;4.87;;;3.30;;
71164;SDS011;58859;55.132;-1.586;2022-11-21T06:54:15;5.07;;;3.83;;
71164;SDS011;58859;55.132;-1.586;2022-11-21T06:56:40;3.80;;;3.45;;
71164;SDS011;58859;55.132;-1.586;2022-11-21T06:59:05;3.53;;;2.70;;
71164;SDS011;58859;55.132;-1.586;2022-11-21T07:01:31;3.97;;;3.00;;
71164;SDS011;58859;55.132;-1.586;2022-11-21T07:03:56;5.10;;;3.43;;
71164;SDS011;58859;55.132;-1.586;2022-11-21T07:06:21;6.60;;;3.80;;
71164;SDS011;58859;55.132;-1.586;2022-11-21T07:08:50;4.50;;;3.10;;
71164;SDS011;58859;55.132;-1.586;2022-11-21T07:11:17;5.18;;;3.08;;
71164;SDS011;58859;55.132;-1.586;2022-11-21T07:13:42;5.37;;;2.93;;
71164;SDS011;58859;55.132;-1.586;2022-11-21T07:16:09;3.92;;;2.80;;
71164;SDS011;58859;55.132;-1.586;2022-11-21T07:18:38;3.40;;;2.77;;
71164;SDS011;58859;55.132;-1.586;2022-11-21T07:21:04;4.45;;;3.00;;
71164;SDS011;58859;55.132;-1.586;2022-11-21T07:23:30;4.07;;;2.85;;
71164;SDS011;58859;55.132;-1.586;2022-11-21T07:25:59;6.70;;;2.80;;
71164;SDS011;58859;55.132;-1.586;2022-11-21T07:28:26;4.90;;;3.05;;
71164;SDS011;58859;55.132;-1.586;2022-11-21T07:30:54;4.60;;;3.15;;
71164;SDS011;58859;55.132;-1.586;2022-11-21T07:33:21;4.90;;;2.90;;
71164;SDS011;58859;55.132;-1.586;2022-11-21T07:35:46;3.87;;;2.90;;
71164;SDS011;58859;55.132;-1.586;2022-11-21T07:38:11;5.40;;;3.50;;
71164;SDS011;58859;55.132;-1.586;2022-11-21T07:40:37;5.67;;;3.50;;
71164;SDS011;58859;55.132;-1.586;2022-11-21T07:43:03;3.83;;;2.30;;
71164;SDS011;58859;55.132;-1.586;2022-11-21T07:45:29;3.57;;;2.87;;
71164;SDS011;58859;55.132;-1.586;2022-11-21T07:47:58;5.43;;;2.47;;
71164;SDS011;58859;55.132;-1.586;2022-11-21T07:50:25;5.32;;;3.58;;
71164;SDS011;58859;55.132;-1.586;2022-11-21T07:52:50;4.10;;;2.80;;
71164;SDS011;58859;55.132;-1.586;2022-11-21T07:55:16;6.50;;;4.57;;
71164;SDS011;58859;55.132;-1.586;2022-11-21T07:57:41;9.55;;;4.30;;
71164;SDS011;58859;55.132;-1.586;2022-11-21T08:00:07;5.68;;;3.53;;
71164;SDS011;58859;55.132;-1.586;2022-11-21T08:02:33;5.47;;;3.27;;
71164;SDS011;58859;55.132;-1.586;2022-11-21T08:04:58;6.22;;;3.85;;
71164;SDS011;58859;55.132;-1.586;2022-11-21T08:07:24;6.67;;;4.23;;
71164;SDS011;58859;55.132;-1.586;2022-11-21T08:09:49;5.07;;;3.13;;
71164;SDS011;58859;55.132;-1.586;2022-11-21T08:12:15;10.73;;;5.37;;
71164;SDS011;58859;55.132;-1.586;2022-11-21T08:14:40;7.25;;;4.38;;
71164;SDS011;58859;55.132;-1.586;2022-11-21T08:17:06;7.83;;;3.87;;
71164;SDS011;58859;55.132;-1.586;2022-11-21T08:19:32;4.13;;;2.78;;
71164;SDS011;58859;55.132;-1.586;2022-11-21T08:21:58;5.40;;;3.37;;
71164;SDS011;58859;55.132;-1.586;2022-11-21T08:24:23;5.75;;;3.75;;
71164;SDS011;58859;55.132;-1.586;2022-11-21T08:26:49;8.60;;;4.43;;
71164;SDS011;58859;55.132;-1.586;2022-11-21T08:29:15;4.88;;;3.13;;
71164;SDS011;58859;55.132;-1.586;2022-11-21T08:31:41;5.50;;;3.43;;
71164;SDS011;58859;55.132;-1.586;2022-11-21T08:34:07;6.35;;;3.47;;
71164;SDS011;58859;55.132;-1.586;2022-11-21T08:36:32;4.97;;;2.90;;
71164;SDS011;58859;55.132;-1.586;2022-11-21T08:38:58;7.07;;;3.58;;
71164;SDS011;58859;55.132;-1.586;2022-11-21T08:41:23;4.97;;;3.00;;
71164;SDS011;58859;55.132;-1.586;2022-11-21T08:44:07;6.13;;;3.53;;
71164;SDS011;58859;55.132;-1.586;2022-11-21T08:46:34;5.07;;;3.27;;
71164;SDS011;58859;55.132;-1.586;2022-11-21T08:49:04;5.22;;;3.33;;
71164;SDS011;58859;55.132;-1.586;2022-11-21T08:51:32;5.03;;;3.05;;
71164;SDS011;58859;55.132;-1.586;2022-11-21T08:53:57;4.20;;;2.80;;
71164;SDS011;58859;55.132;-1.586;2022-11-21T08:56:23;6.53;;;4.00;;
71164;SDS011;58859;55.132;-1.586;2022-11-21T08:58:49;5.95;;;3.00;;
71164;SDS011;58859;55.132;-1.586;2022-11-21T09:01:15;7.20;;;4.50;;
71164;SDS011;58859;55.132;-1.586;2022-11-21T09:03:40;5.17;;;4.30;;
71164;SDS011;58859;55.132;-1.586;2022-11-21T09:06:06;7.13;;;5.37;;
71164;SDS011;58859;55.132;-1.586;2022-11-21T09:08:31;6.72;;;4.10;;
71164;SDS011;58859;55.132;-1.586;2022-11-21T09:10:57;8.23;;;4.67;;
71164;SDS011;58859;55.132;-1.586;2022-11-21T09:13:23;6.45;;;4.45;;
71164;SDS011;58859;55.132;-1.586;2022-11-21T09:15:48;8.67;;;4.70;;
71164;SDS011;58859;55.132;-1.586;2022-11-21T09:18:32;8.63;;;5.78;;
71164;SDS011;58859;55.132;-1.586;2022-11-21T09:20:58;7.23;;;4.70;;
71164;SDS011;58859;55.132;-1.586;2022-11-21T09:23:24;8.30;;;5.07;;
71164;SDS011;58859;55.132;-1.586;2022-11-21T09:25:49;8.30;;;5.03;;
71164;SDS011;58859;55.132;-1.586;2022-11-21T09:28:15;15.13;;;5.33;;
71164;SDS011;58859;55.132;-1.586;2022-11-21T09:30:40;9.88;;;5.20;;
71164;SDS011;58859;55.132;-1.586;2022-11-21T09:33:08;6.75;;;4.13;;
71164;SDS011;58859;55.132;-1.586;2022-11-21T09:35:35;7.20;;;4.23;;
71164;SDS011;58859;55.132;-1.586;2022-11-21T09:38:01;6.85;;;4.30;;
71164;SDS011;58859;55.132;-1.586;2022-11-21T09:40:27;5.40;;;3.83;;
71164;SDS011;58859;55.132;-1.586;2022-11-21T09:48:10;6.88;;;3.78;;
71164;SDS011;58859;55.132;-1.586;2022-11-21T09:50:40;7.10;;;4.32;;
71164;SDS011;58859;55.132;-1.586;2022-11-21T09:58:24;11.77;;;6.28;;
71164;SDS011;58859;55.132;-1.586;2022-11-21T10:00:51;10.50;;;6.35;;
71164;SDS011;58859;55.132;-1.586;2022-11-21T10:03:17;8.73;;;5.50;;
71164;SDS011;58859;55.132;-1.586;2022-11-21T10:05:58;10.17;;;5.10;;
71164;SDS011;58859;55.132;-1.586;2022-11-21T10:11:09;13.57;;;6.68;;
71164;SDS011;58859;55.132;-1.586;2022-11-21T10:16:42;15.38;;;6.13;;
71164;SDS011;58859;55.132;-1.586;2022-11-21T10:19:48;8.07;;;5.57;;
71164;SDS011;58859;55.132;-1.586;2022-11-21T10:23:12;7.30;;;5.13;;
71164;SDS011;58859;55.132;-1.586;2022-11-21T10:25:25;9.90;;;6.47;;
71164;SDS011;58859;55.132;-1.586;2022-11-21T10:27:55;12.32;;;7.88;;
71164;SDS011;58859;55.132;-1.586;2022-11-21T10:30:44;10.10;;;5.40;;
71164;SDS011;58859;55.132;-1.586;2022-11-21T10:33:12;6.17;;;4.43;;
71164;SDS011;58859;55.132;-1.586;2022-11-21T10:35:40;7.03;;;4.60;;
71164;SDS011;58859;55.132;-1.586;2022-11-21T10:38:28;5.53;;;4.35;;
71164;SDS011;58859;55.132;-1.586;2022-11-21T10:40:59;10.68;;;6.22;;
71164;SDS011;58859;55.132;-1.586;2022-11-21T10:43:42;11.40;;;7.20;;
71164;SDS011;58859;55.132;-1.586;2022-11-21T10:46:31;12.13;;;7.07;;
71164;SDS011;58859;55.132;-1.586;2022-11-21T10:49:00;11.73;;;6.87;;
71164;SDS011;58859;55.132;-1.586;2022-11-21T10:54:08;11.85;;;6.32;;
71164;SDS011;58859;55.132;-1.586;2022-11-21T10:56:53;12.27;;;6.70;;
71164;SDS011;58859;55.132;-1.586;2022-11-21T10:59:24;12.60;;;6.85;;
71164;SDS011;58859;55.132;-1.586;2022-11-21T11:02:01;11.53;;;6.00;;
71164;SDS011;58859;55.132;-1.586;2022-11-21T11:04:44;8.73;;;5.65;;
71164;SDS011;58859;55.132;-1.586;2022-11-21T11:07:21;8.23;;;5.67;;
71164;SDS011;58859;55.132;-1.586;2022-11-21T11:09:48;6.60;;;4.22;;
71164;SDS011;58859;55.132;-1.586;2022-11-21T11:12:25;8.85;;;4.93;;
71164;SDS011;58859;55.132;-1.586;2022-11-21T11:15:24;9.57;;;5.82;;
71164;SDS011;58859;55.132;-1.586;2022-11-21T11:18:00;10.23;;;5.22;;
71164;SDS011;58859;55.132;-1.586;2022-11-21T11:20:37;9.05;;;4.85;;
71164;SDS011;58859;55.132;-1.586;2022-11-21T11:25:57;8.73;;;5.40;;
71164;SDS011;58859;55.132;-1.586;2022-11-21T11:28:24;8.18;;;5.53;;
71164;SDS011;58859;55.132;-1.586;2022-11-21T11:30:54;8.93;;;5.82;;
71164;SDS011;58859;55.132;-1.586;2022-11-21T11:33:27;10.98;;;5.93;;
71164;SDS011;58859;55.132;-1.586;2022-11-21T11:36:07;7.45;;;5.07;;
71164;SDS011;58859;55.132;-1.586;2022-11-21T11:38:37;9.07;;;5.40;;
71164;SDS011;58859;55.132;-1.586;2022-11-21T11:41:05;7.85;;;5.25;;
71164;SDS011;58859;55.132;-1.586;2022-11-21T11:43:50;9.77;;;6.03;;
71164;SDS011;58859;55.132;-1.586;2022-11-21T11:46:59;8.82;;;5.65;;
71164;SDS011;58859;55.132;-1.586;2022-11-21T11:49:50;11.60;;;6.85;;
71164;SDS011;58859;55.132;-1.586;2022-11-21T11:52:38;11.27;;;7.07;;
71164;SDS011;58859;55.132;-1.586;2022-11-21T11:57:56;12.73;;;8.30;;
71164;SDS011;58859;55.132;-1.586;2022-11-21T12:03:04;15.85;;;7.38;;
71164;SDS011;58859;55.132;-1.586;2022-11-21T12:05:32;13.90;;;7.72;;
71164;SDS011;58859;55.132;-1.586;2022-11-21T12:10:34;12.77;;;7.60;;
71164;SDS011;58859;55.132;-1.586;2022-11-21T12:13:25;16.02;;;6.40;;
71164;SDS011;58859;55.132;-1.586;2022-11-21T12:15:52;15.23;;;7.85;;
71164;SDS011;58859;55.132;-1.586;2022-11-21T12:34:52;15.35;;;9.13;;
71164;SDS011;58859;55.132;-1.586;2022-11-21T12:38:03;13.60;;;8.18;;
71164;SDS011;58859;55.132;-1.586;2022-11-21T12:46:06;15.23;;;8.73;;
71164;SDS011;58859;55.132;-1.586;2022-11-21T12:51:49;16.10;;;7.18;;
71164;SDS011;58859;55.132;-1.586;2022-11-21T12:54:49;15.30;;;7.30;;
71164;SDS011;58859;55.132;-1.586;2022-11-21T12:57:20;16.20;;;6.82;;
71164;SDS011;58859;55.132;-1.586;2022-11-21T13:00:17;11.17;;;5.40;;
71164;SDS011;58859;55.132;-1.586;2022-11-21T13:05:29;8.82;;;3.60;;
71164;SDS011;58859;55.132;-1.586;2022-11-21T13:08:00;4.85;;;2.65;;
71164;SDS011;58859;55.132;-1.586;2022-11-21T13:10:28;4.80;;;2.05;;
71164;SDS011;58859;55.132;-1.586;2022-11-21T13:15:40;6.30;;;2.63;;
71164;SDS011;58859;55.132;-1.586;2022-11-21T13:18:24;4.85;;;3.05;;
71164;SDS011;58859;55.132;-1.586;2022-11-21T13:20:55;2.83;;;2.45;;
71164;SDS011;58859;55.132;-1.586;2022-11-21T13:23:34;5.97;;;2.73;;
71164;SDS011;58859;55.132;-1.586;2022-11-21T13:26:00;4.35;;;2.63;;
71164;SDS011;58859;55.132;-1.586;2022-11-21T13:28:29;4.20;;;2.27;;
71164;SDS011;58859;55.132;-1.586;2022-11-21T13:30:56;5.75;;;2.28;;
71164;SDS011;58859;55.132;-1.586;2022-11-21T13:38:30;7.82;;;1.80;;
71164;SDS011;58859;55.132;-1.586;2022-11-21T13:40:56;3.78;;;1.77;;
71164;SDS011;58859;55.132;-1.586;2022-11-21T13:43:40;2.45;;;1.83;;
71164;SDS011;58859;55.132;-1.586;2022-11-21T13:46:06;4.43;;;2.28;;
71164;SDS011;58859;55.132;-1.586;2022-11-21T13:57:28;4.38;;;2.08;;
71164;SDS011;58859;55.132;-1.586;2022-11-21T14:06:01;5.90;;;2.53;;
71164;SDS011;58859;55.132;-1.586;2022-11-21T14:08:33;2.50;;;1.10;;
71164;SDS011;58859;55.132;-1.586;2022-11-21T14:10:59;3.72;;;1.45;;
71164;SDS011;58859;55.132;-1.586;2022-11-21T14:13:44;6.30;;;3.25;;
71164;SDS011;58859;55.132;-1.586;2022-11-21T14:16:33;3.60;;;1.87;;
71164;SDS011;58859;55.132;-1.586;2022-11-21T14:19:01;8.05;;;1.30;;
71164;SDS011;58859;55.132;-1.586;2022-11-21T14:21:30;1.90;;;1.05;;
71164;SDS011;58859;55.132;-1.586;2022-11-21T14:23:57;3.58;;;1.58;;
71164;SDS011;58859;55.132;-1.586;2022-11-21T14:26:28;7.07;;;1.10;;
71164;SDS011;58859;55.132;-1.586;2022-11-21T14:29:14;4.80;;;1.33;;
71164;SDS011;58859;55.132;-1.586;2022-11-21T14:31:47;2.40;;;1.33;;
71164;SDS011;58859;55.132;-1.586;2022-11-21T14:34:22;0.93;;;0.93;;
71164;SDS011;58859;55.132;-1.586;2022-11-21T14:36:49;2.75;;;1.30;;
71164;SDS011;58859;55.132;-1.586;2022-11-21T14:39:14;5.50;;;1.20;;
71164;SDS011;58859;55.132;-1.586;2022-11-21T14:41:40;3.30;;;1.10;;
71164;SDS011;58859;55.132;-1.586;2022-11-21T14:46:36;2.40;;;1.48;;
71164;SDS011;58859;55.132;-1.586;2022-11-21T14:51:41;1.15;;;1.02;;
71164;SDS011;58859;55.132;-1.586;2022-11-21T14:54:39;3.97;;;1.75;;
71164;SDS011;58859;55.132;-1.586;2022-11-21T14:57:13;3.28;;;1.42;;
71164;SDS011;58859;55.132;-1.586;2022-11-21T14:59:48;1.33;;;1.17;;
71164;SDS011;58859;55.132;-1.586;2022-11-21T15:02:18;4.47;;;1.40;;
71164;SDS011;58859;55.132;-1.586;2022-11-21T15:04:46;1.05;;;1.02;;
71164;SDS011;58859;55.132;-1.586;2022-11-21T15:07:21;4.07;;;1.40;;
71164;SDS011;58859;55.132;-1.586;2022-11-21T15:09:48;1.25;;;0.90;;
71164;SDS011;58859;55.132;-1.586;2022-11-21T15:12:26;1.33;;;1.05;;
71164;SDS011;58859;55.132;-1.586;2022-11-21T15:14:59;4.13;;;1.60;;
71164;SDS011;58859;55.132;-1.586;2022-11-21T15:17:25;4.25;;;1.00;;
71164;SDS011;58859;55.132;-1.586;2022-11-21T15:22:52;3.20;;;1.33;;
71164;SDS011;58859;55.132;-1.586;2022-11-21T15:25:20;4.05;;;1.55;;
71164;SDS011;58859;55.132;-1.586;2022-11-21T15:27:48;4.13;;;0.88;;
71164;SDS011;58859;55.132;-1.586;2022-11-21T15:37:58;2.47;;;1.60;;
71164;SDS011;58859;55.132;-1.586;2022-11-21T15:40:23;4.05;;;1.73;;
71164;SDS011;58859;55.132;-1.586;2022-11-21T15:42:49;3.03;;;1.55;;
71164;SDS011;58859;55.132;-1.586;2022-11-21T15:47:40;4.50;;;1.87;;
71164;SDS011;58859;55.132;-1.586;2022-11-21T15:50:05;4.73;;;1.63;;
71164;SDS011;58859;55.132;-1.586;2022-11-21T15:52:35;5.72;;;1.67;;
71164;SDS011;58859;55.132;-1.586;2022-11-21T15:55:10;3.22;;;2.10;;
71164;SDS011;58859;55.132;-1.586;2022-11-21T15:57:36;5.43;;;2.40;;
71164;SDS011;58859;55.132;-1.586;2022-11-21T16:00:02;3.20;;;2.00;;
71164;SDS011;58859;55.132;-1.586;2022-11-21T16:02:28;4.07;;;2.00;;
71164;SDS011;58859;55.132;-1.586;2022-11-21T16:04:53;5.53;;;1.90;;
71164;SDS011;58859;55.132;-1.586;2022-11-21T16:07:19;5.03;;;2.07;;
71164;SDS011;58859;55.132;-1.586;2022-11-21T16:09:44;3.47;;;1.50;;
71164;SDS011;58859;55.132;-1.586;2022-11-21T16:12:10;3.40;;;1.70;;
71164;SDS011;58859;55.132;-1.586;2022-11-21T16:14:35;4.00;;;1.83;;
71164;SDS011;58859;55.132;-1.586;2022-11-21T16:17:01;5.07;;;2.90;;
71164;SDS011;58859;55.132;-1.586;2022-11-21T16:19:26;2.43;;;2.10;;
71164;SDS011;58859;55.132;-1.586;2022-11-21T16:21:52;4.38;;;2.00;;
71164;SDS011;58859;55.132;-1.586;2022-11-21T16:24:17;3.70;;;2.30;;
71164;SDS011;58859;55.132;-1.586;2022-11-21T16:26:43;3.27;;;1.80;;
71164;SDS011;58859;55.132;-1.586;2022-11-21T16:29:08;7.03;;;3.85;;